sensor_id;sensor_type;location;lat;lon;timestamp;pressure;altitude;pressure_sealevel;temperature;humidity
27210;BME280;14721;42.668;23.386;2023-08-07T00:00:18;94680.31;;;17.26;90.84
27210;BME280;14721;42.668;23.386;2023-08-07T00:03:08;94715.63;;;17.49;90.70
27210;BME280;14721;42.668;23.386;2023-08-07T00:06:15;94712.41;;;17.45;90.58
27210;BME280;14721;42.668;23.386;2023-08-07T00:09:03;94653.66;;;17.07;90.89
27210;BME280;14721;42.668;23.386;2023-08-07T00:15:25;94667.66;;;17.03;92.98
27210;BME280;14721;42.668;23.386;2023-08-07T00:18:29;94690.59;;;17.07;92.93
27210;BME280;14721;42.668;23.386;2023-08-07T00:21:15;94724.34;;;17.27;93.22
27210;BME280;14721;42.668;23.386;2023-08-07T00:57:56;94731.75;;;17.01;93.15
27210;BME280;14721;42.668;23.386;2023-08-07T01:00:27;94752.84;;;17.13;93.09
27210;BME280;14721;42.668;23.386;2023-08-07T01:02:59;94703.06;;;16.83;92.79
27210;BME280;14721;42.668;23.386;2023-08-07T01:05:57;94684.84;;;16.77;92.90
27210;BME280;14721;42.668;23.386;2023-08-07T01:12:16;94768.72;;;17.24;91.98
27210;BME280;14721;42.668;23.386;2023-08-07T01:25:38;94760.06;;;16.97;92.87
27210;BME280;14721;42.668;23.386;2023-08-07T01:28:33;94773.78;;;17.19;92.12
27210;BME280;14721;42.668;23.386;2023-08-07T01:31:25;94776.13;;;17.22;91.95
27210;BME280;14721;42.668;23.386;2023-08-07T01:34:18;94750.50;;;17.02;92.01
27210;BME280;14721;42.668;23.386;2023-08-07T01:36:53;94726.69;;;16.98;91.71
27210;BME280;14721;42.668;23.386;2023-08-07T01:39:43;94751.19;;;17.20;91.36
27210;BME280;14721;42.668;23.386;2023-08-07T01:46:12;94753.88;;;17.28;91.18
27210;BME280;14721;42.668;23.386;2023-08-07T01:59:18;94784.44;;;17.29;91.76
27210;BME280;14721;42.668;23.386;2023-08-07T02:05:11;94700.03;;;16.86;91.74
27210;BME280;14721;42.668;23.386;2023-08-07T02:11:10;94724.31;;;16.86;91.82
27210;BME280;14721;42.668;23.386;2023-08-07T02:13:56;94773.44;;;17.22;92.08
27210;BME280;14721;42.668;23.386;2023-08-07T02:16:23;94792.38;;;17.30;92.35
27210;BME280;14721;42.668;23.386;2023-08-07T02:19:22;94742.38;;;16.94;92.51
27210;BME280;14721;42.668;23.386;2023-08-07T02:25:28;94799.47;;;17.39;91.92
27210;BME280;14721;42.668;23.386;2023-08-07T02:28:16;94811.59;;;17.27;92.10
27210;BME280;14721;42.668;23.386;2023-08-07T02:30:48;94793.19;;;17.23;91.72
27210;BME280;14721;42.668;23.386;2023-08-07T02:33:45;94750.94;;;16.81;92.03
27210;BME280;14721;42.668;23.386;2023-08-07T02:36:34;94792.47;;;17.05;92.08
27210;BME280;14721;42.668;23.386;2023-08-07T02:42:09;94803.31;;;17.13;92.60
27210;BME280;14721;42.668;23.386;2023-08-07T02:45:08;94756.31;;;16.81;92.76
27210;BME280;14721;42.668;23.386;2023-08-07T02:47:52;94781.81;;;16.87;93.13
27210;BME280;14721;42.668;23.386;2023-08-07T02:50:38;94801.59;;;17.04;92.96
27210;BME280;14721;42.668;23.386;2023-08-07T02:56:15;94829.91;;;17.00;94.63
27210;BME280;14721;42.668;23.386;2023-08-07T02:59:01;94806.94;;;16.87;94.25
27210;BME280;14721;42.668;23.386;2023-08-07T03:01:36;94772.28;;;16.59;94.90
27210;BME280;14721;42.668;23.386;2023-08-07T03:04:12;94817.72;;;16.87;94.90
27210;BME280;14721;42.668;23.386;2023-08-07T03:06:38;94832.78;;;16.90;95.21
27210;BME280;14721;42.668;23.386;2023-08-07T03:09:06;94813.47;;;16.69;95.85
27210;BME280;14721;42.668;23.386;2023-08-07T03:11:45;94825.28;;;16.76;96.09
27210;BME280;14721;42.668;23.386;2023-08-07T03:14:10;94836.25;;;16.74;96.52
27210;BME280;14721;42.668;23.386;2023-08-07T03:16:36;94823.94;;;16.80;96.02
27210;BME280;14721;42.668;23.386;2023-08-07T03:19:04;94824.25;;;16.77;95.58
27210;BME280;14721;42.668;23.386;2023-08-07T03:21:32;94842.31;;;16.76;96.05
27210;BME280;14721;42.668;23.386;2023-08-07T03:24:01;94815.75;;;16.56;96.41
27210;BME280;14721;42.668;23.386;2023-08-07T03:26:29;94820.00;;;16.66;96.63
27210;BME280;14721;42.668;23.386;2023-08-07T03:29:01;94843.47;;;16.74;96.94
27210;BME280;14721;42.668;23.386;2023-08-07T03:31:27;94841.63;;;16.74;96.55
27210;BME280;14721;42.668;23.386;2023-08-07T03:33:52;94844.22;;;16.84;96.54
27210;BME280;14721;42.668;23.386;2023-08-07T03:36:18;94829.09;;;16.99;95.60
27210;BME280;14721;42.668;23.386;2023-08-07T03:38:44;94853.88;;;17.60;93.31
27210;BME280;14721;42.668;23.386;2023-08-07T03:41:09;94833.94;;;18.01;90.16
27210;BME280;14721;42.668;23.386;2023-08-07T03:43:35;94852.31;;;18.54;86.87
27210;BME280;14721;42.668;23.386;2023-08-07T03:46:11;94846.66;;;18.80;83.81
27210;BME280;14721;42.668;23.386;2023-08-07T03:48:49;94874.75;;;18.79;83.00
27210;BME280;14721;42.668;23.386;2023-08-07T03:51:15;94876.34;;;18.49;83.59
27210;BME280;14721;42.668;23.386;2023-08-07T03:53:42;94875.66;;;18.23;83.52
27210;BME280;14721;42.668;23.386;2023-08-07T03:56:27;94827.53;;;17.70;83.15
27210;BME280;14721;42.668;23.386;2023-08-07T03:59:03;94874.00;;;17.98;84.32
27210;BME280;14721;42.668;23.386;2023-08-07T04:01:29;94869.41;;;17.82;84.20
27210;BME280;14721;42.668;23.386;2023-08-07T04:03:54;94864.53;;;17.78;84.63
27210;BME280;14721;42.668;23.386;2023-08-07T04:06:22;94849.81;;;17.64;84.80
27210;BME280;14721;42.668;23.386;2023-08-07T04:08:48;94884.47;;;17.77;83.70
27210;BME280;14721;42.668;23.386;2023-08-07T04:11:22;94859.97;;;17.70;84.21
27210;BME280;14721;42.668;23.386;2023-08-07T04:14:08;94914.88;;;18.11;84.10
27210;BME280;14721;42.668;23.386;2023-08-07T04:16:54;94885.47;;;18.08;83.86
27210;BME280;14721;42.668;23.386;2023-08-07T04:19:21;94911.50;;;18.25;83.76
27210;BME280;14721;42.668;23.386;2023-08-07T04:21:51;94874.47;;;18.25;82.79
27210;BME280;14721;42.668;23.386;2023-08-07T04:24:17;94904.25;;;18.41;81.94
27210;BME280;14721;42.668;23.386;2023-08-07T04:26:42;94901.84;;;18.62;80.17
27210;BME280;14721;42.668;23.386;2023-08-07T04:29:08;94912.13;;;18.83;79.00
27210;BME280;14721;42.668;23.386;2023-08-07T04:31:33;94915.97;;;18.97;78.21
27210;BME280;14721;42.668;23.386;2023-08-07T04:33:59;94924.00;;;19.59;76.44
27210;BME280;14721;42.668;23.386;2023-08-07T04:36:25;94921.56;;;21.43;69.66
27210;BME280;14721;42.668;23.386;2023-08-07T04:38:50;94919.72;;;23.33;61.73
27210;BME280;14721;42.668;23.386;2023-08-07T04:41:16;94903.00;;;24.63;56.50
27210;BME280;14721;42.668;23.386;2023-08-07T04:43:42;94904.66;;;25.49;52.82
27210;BME280;14721;42.668;23.386;2023-08-07T04:46:09;94913.13;;;24.89;53.13
27210;BME280;14721;42.668;23.386;2023-08-07T04:48:35;94925.13;;;24.08;55.14
27210;BME280;14721;42.668;23.386;2023-08-07T04:51:02;94903.13;;;24.16;55.59
27210;BME280;14721;42.668;23.386;2023-08-07T04:53:32;94867.28;;;24.84;51.92
27210;BME280;14721;42.668;23.386;2023-08-07T04:56:18;94878.22;;;25.80;49.98
27210;BME280;14721;42.668;23.386;2023-08-07T04:58:54;94904.34;;;26.65;47.54
27210;BME280;14721;42.668;23.386;2023-08-07T05:01:21;94889.69;;;26.77;46.97
27210;BME280;14721;42.668;23.386;2023-08-07T05:03:48;94889.75;;;27.44;45.81
27210;BME280;14721;42.668;23.386;2023-08-07T05:06:13;94882.06;;;27.53;45.13
27210;BME280;14721;42.668;23.386;2023-08-07T05:08:46;94882.91;;;27.90;44.13
27210;BME280;14721;42.668;23.386;2023-08-07T05:11:12;94886.56;;;28.49;42.21
27210;BME280;14721;42.668;23.386;2023-08-07T05:13:39;94872.75;;;28.38;42.51
27210;BME280;14721;42.668;23.386;2023-08-07T05:16:04;94891.69;;;28.75;40.96
27210;BME280;14721;42.668;23.386;2023-08-07T05:18:30;94879.34;;;28.78;40.68
27210;BME280;14721;42.668;23.386;2023-08-07T05:20:56;94885.91;;;29.06;40.41
27210;BME280;14721;42.668;23.386;2023-08-07T05:23:21;94885.38;;;28.98;40.21
27210;BME280;14721;42.668;23.386;2023-08-07T05:25:51;94892.44;;;28.53;40.59
27210;BME280;14721;42.668;23.386;2023-08-07T05:28:27;94872.38;;;28.34;41.00
27210;BME280;14721;42.668;23.386;2023-08-07T05:30:55;94833.78;;;28.70;40.27
27210;BME280;14721;42.668;23.386;2023-08-07T05:33:21;94875.41;;;29.27;39.58
27210;BME280;14721;42.668;23.386;2023-08-07T05:35:46;94891.41;;;28.65;40.60
27210;BME280;14721;42.668;23.386;2023-08-07T05:38:12;94897.06;;;28.23;41.53
27210;BME280;14721;42.668;23.386;2023-08-07T05:40:37;94902.75;;;27.31;42.96
27210;BME280;14721;42.668;23.386;2023-08-07T05:43:03;94871.19;;;26.73;44.18
27210;BME280;14721;42.668;23.386;2023-08-07T05:45:34;94893.22;;;27.09;42.96
27210;BME280;14721;42.668;23.386;2023-08-07T05:47:59;94884.19;;;26.84;42.70
27210;BME280;14721;42.668;23.386;2023-08-07T05:50:25;94889.88;;;27.07;42.96
27210;BME280;14721;42.668;23.386;2023-08-07T05:52:53;94884.38;;;27.07;43.07
27210;BME280;14721;42.668;23.386;2023-08-07T05:55:19;94885.66;;;26.49;43.65
27210;BME280;14721;42.668;23.386;2023-08-07T05:57:46;94885.81;;;26.91;43.48
27210;BME280;14721;42.668;23.386;2023-08-07T06:00:12;94895.69;;;26.92;43.35
27210;BME280;14721;42.668;23.386;2023-08-07T06:02:43;94900.63;;;26.84;43.21
27210;BME280;14721;42.668;23.386;2023-08-07T06:05:08;94904.69;;;27.24;43.38
27210;BME280;14721;42.668;23.386;2023-08-07T06:07:42;94865.44;;;27.23;42.19
27210;BME280;14721;42.668;23.386;2023-08-07T06:10:08;94905.88;;;27.34;41.96
27210;BME280;14721;42.668;23.386;2023-08-07T06:12:33;94897.19;;;27.13;42.96
27210;BME280;14721;42.668;23.386;2023-08-07T06:14:59;94879.31;;;27.35;41.66
27210;BME280;14721;42.668;23.386;2023-08-07T06:17:24;94892.66;;;27.49;41.53
27210;BME280;14721;42.668;23.386;2023-08-07T06:19:49;94875.34;;;27.49;41.71
27210;BME280;14721;42.668;23.386;2023-08-07T06:22:15;94875.81;;;27.64;41.30
27210;BME280;14721;42.668;23.386;2023-08-07T06:24:40;94886.66;;;27.77;41.76
27210;BME280;14721;42.668;23.386;2023-08-07T06:27:06;94877.66;;;27.88;41.41
27210;BME280;14721;42.668;23.386;2023-08-07T06:29:31;94879.03;;;27.97;40.12
27210;BME280;14721;42.668;23.386;2023-08-07T06:31:57;94873.91;;;28.01;40.33
27210;BME280;14721;42.668;23.386;2023-08-07T06:34:22;94877.38;;;28.26;39.53
27210;BME280;14721;42.668;23.386;2023-08-07T06:36:48;94872.06;;;28.13;40.62
27210;BME280;14721;42.668;23.386;2023-08-07T06:39:13;94849.34;;;28.06;39.83
27210;BME280;14721;42.668;23.386;2023-08-07T06:41:39;94875.31;;;28.21;38.85
27210;BME280;14721;42.668;23.386;2023-08-07T06:44:04;94859.63;;;28.40;38.51
27210;BME280;14721;42.668;23.386;2023-08-07T06:46:30;94866.03;;;28.22;37.94
27210;BME280;14721;42.668;23.386;2023-08-07T06:48:55;94872.25;;;28.29;36.18
27210;BME280;14721;42.668;23.386;2023-08-07T06:51:21;94896.63;;;28.96;36.32
27210;BME280;14721;42.668;23.386;2023-08-07T06:53:46;94871.78;;;28.62;36.44
27210;BME280;14721;42.668;23.386;2023-08-07T06:56:12;94874.47;;;28.68;35.96
27210;BME280;14721;42.668;23.386;2023-08-07T06:58:54;94865.44;;;28.50;35.64
27210;BME280;14721;42.668;23.386;2023-08-07T07:01:22;94896.97;;;28.88;36.36
27210;BME280;14721;42.668;23.386;2023-08-07T07:06:38;94900.66;;;28.82;35.68
27210;BME280;14721;42.668;23.386;2023-08-07T07:09:04;94881.94;;;29.02;34.96
27210;BME280;14721;42.668;23.386;2023-08-07T07:11:33;94889.19;;;28.85;34.70
27210;BME280;14721;42.668;23.386;2023-08-07T07:14:00;94895.69;;;28.61;35.16
27210;BME280;14721;42.668;23.386;2023-08-07T07:16:25;94877.47;;;28.78;35.42
27210;BME280;14721;42.668;23.386;2023-08-07T07:18:51;94884.84;;;28.78;34.33
27210;BME280;14721;42.668;23.386;2023-08-07T07:21:17;94873.78;;;28.96;35.41
27210;BME280;14721;42.668;23.386;2023-08-07T07:23:43;94889.94;;;29.04;34.96
27210;BME280;14721;42.668;23.386;2023-08-07T07:26:08;94885.50;;;28.91;35.79
27210;BME280;14721;42.668;23.386;2023-08-07T07:28:34;94886.75;;;29.07;35.36
27210;BME280;14721;42.668;23.386;2023-08-07T07:30:59;94878.41;;;29.13;35.27
27210;BME280;14721;42.668;23.386;2023-08-07T07:33:25;94878.41;;;29.13;35.04
27210;BME280;14721;42.668;23.386;2023-08-07T07:35:50;94874.22;;;29.69;35.11
27210;BME280;14721;42.668;23.386;2023-08-07T07:38:16;94877.22;;;28.91;36.11
27210;BME280;14721;42.668;23.386;2023-08-07T07:40:41;94888.84;;;28.93;35.32
27210;BME280;14721;42.668;23.386;2023-08-07T07:43:07;94871.81;;;29.14;34.09
27210;BME280;14721;42.668;23.386;2023-08-07T07:45:33;94859.13;;;29.60;34.27
27210;BME280;14721;42.668;23.386;2023-08-07T07:48:01;94861.78;;;30.17;32.94
27210;BME280;14721;42.668;23.386;2023-08-07T07:50:27;94854.09;;;30.31;33.25
27210;BME280;14721;42.668;23.386;2023-08-07T07:52:52;94884.19;;;30.21;33.34
27210;BME280;14721;42.668;23.386;2023-08-07T07:55:18;94862.22;;;29.86;33.98
27210;BME280;14721;42.668;23.386;2023-08-07T07:57:44;94876.59;;;29.88;34.04
27210;BME280;14721;42.668;23.386;2023-08-07T08:00:10;94869.53;;;29.81;33.60
27210;BME280;14721;42.668;23.386;2023-08-07T08:02:40;94880.22;;;29.66;32.72
27210;BME280;14721;42.668;23.386;2023-08-07T08:05:08;94872.75;;;29.55;32.25
27210;BME280;14721;42.668;23.386;2023-08-07T08:07:35;94863.44;;;29.21;32.98
27210;BME280;14721;42.668;23.386;2023-08-07T08:10:01;94869.78;;;29.10;33.29
27210;BME280;14721;42.668;23.386;2023-08-07T08:12:26;94871.44;;;29.46;32.65
27210;BME280;14721;42.668;23.386;2023-08-07T08:14:52;94879.72;;;30.31;33.12
27210;BME280;14721;42.668;23.386;2023-08-07T08:17:17;94886.56;;;30.29;31.97
27210;BME280;14721;42.668;23.386;2023-08-07T08:19:43;94860.63;;;30.41;30.84
27210;BME280;14721;42.668;23.386;2023-08-07T08:22:08;94852.88;;;30.83;30.37
27210;BME280;14721;42.668;23.386;2023-08-07T08:24:34;94853.44;;;30.68;30.81
27210;BME280;14721;42.668;23.386;2023-08-07T08:27:00;94858.66;;;30.14;31.36
27210;BME280;14721;42.668;23.386;2023-08-07T08:29:26;94833.28;;;30.23;31.89
27210;BME280;14721;42.668;23.386;2023-08-07T08:31:54;94845.13;;;29.50;32.51
27210;BME280;14721;42.668;23.386;2023-08-07T08:34:20;94852.25;;;29.97;32.48
27210;BME280;14721;42.668;23.386;2023-08-07T08:36:47;94836.75;;;30.47;31.57
27210;BME280;14721;42.668;23.386;2023-08-07T08:39:12;94843.94;;;31.09;30.22
27210;BME280;14721;42.668;23.386;2023-08-07T08:41:39;94848.41;;;31.43;29.73
27210;BME280;14721;42.668;23.386;2023-08-07T08:44:06;94851.19;;;31.65;29.31
27210;BME280;14721;42.668;23.386;2023-08-07T08:46:33;94838.06;;;31.93;29.28
27210;BME280;14721;42.668;23.386;2023-08-07T08:49:01;94845.63;;;31.81;29.38
27210;BME280;14721;42.668;23.386;2023-08-07T08:51:32;94816.94;;;31.44;29.44
27210;BME280;14721;42.668;23.386;2023-08-07T08:53:58;94843.31;;;31.73;29.28
27210;BME280;14721;42.668;23.386;2023-08-07T08:56:24;94796.63;;;31.72;29.21
27210;BME280;14721;42.668;23.386;2023-08-07T08:58:51;94824.78;;;32.12;28.68
27210;BME280;14721;42.668;23.386;2023-08-07T09:01:18;94820.09;;;32.12;28.49
27210;BME280;14721;42.668;23.386;2023-08-07T09:03:45;94808.63;;;32.25;28.69
27210;BME280;14721;42.668;23.386;2023-08-07T09:06:12;94825.59;;;32.34;28.08
27210;BME280;14721;42.668;23.386;2023-08-07T09:08:40;94829.84;;;31.39;29.35
27210;BME280;14721;42.668;23.386;2023-08-07T09:11:08;94822.75;;;30.65;29.97
27210;BME280;14721;42.668;23.386;2023-08-07T09:13:35;94830.03;;;30.26;30.89
27210;BME280;14721;42.668;23.386;2023-08-07T09:16:01;94817.81;;;29.60;30.54
27210;BME280;14721;42.668;23.386;2023-08-07T09:18:28;94819.38;;;29.56;31.04
27210;BME280;14721;42.668;23.386;2023-08-07T09:20:53;94818.78;;;29.54;31.42
27210;BME280;14721;42.668;23.386;2023-08-07T09:23:20;94796.81;;;29.19;31.68
27210;BME280;14721;42.668;23.386;2023-08-07T09:25:46;94818.34;;;29.22;31.62
27210;BME280;14721;42.668;23.386;2023-08-07T09:28:12;94797.31;;;28.52;32.91
27210;BME280;14721;42.668;23.386;2023-08-07T09:30:38;94813.19;;;28.50;33.11
27210;BME280;14721;42.668;23.386;2023-08-07T09:33:04;94796.53;;;28.33;33.82
27210;BME280;14721;42.668;23.386;2023-08-07T09:35:31;94799.56;;;28.14;33.67
27210;BME280;14721;42.668;23.386;2023-08-07T09:37:58;94781.63;;;27.82;33.90
27210;BME280;14721;42.668;23.386;2023-08-07T09:40:23;94783.47;;;27.70;34.62
27210;BME280;14721;42.668;23.386;2023-08-07T09:42:54;94766.81;;;27.53;34.51
27210;BME280;14721;42.668;23.386;2023-08-07T09:45:24;94776.94;;;27.34;34.58
27210;BME280;14721;42.668;23.386;2023-08-07T09:48:05;94788.84;;;27.28;35.22
27210;BME280;14721;42.668;23.386;2023-08-07T09:50:33;94781.41;;;26.93;35.49
27210;BME280;14721;42.668;23.386;2023-08-07T09:52:59;94773.22;;;26.62;35.98
27210;BME280;14721;42.668;23.386;2023-08-07T09:55:25;94779.00;;;26.54;36.78
27210;BME280;14721;42.668;23.386;2023-08-07T09:57:51;94781.19;;;26.70;37.16
27210;BME280;14721;42.668;23.386;2023-08-07T10:00:18;94778.31;;;26.58;36.28
27210;BME280;14721;42.668;23.386;2023-08-07T10:02:49;94785.16;;;26.74;36.30
27210;BME280;14721;42.668;23.386;2023-08-07T10:05:15;94788.97;;;26.73;36.45
27210;BME280;14721;42.668;23.386;2023-08-07T10:07:42;94802.56;;;26.55;36.36
27210;BME280;14721;42.668;23.386;2023-08-07T10:10:08;94794.22;;;26.19;37.00
27210;BME280;14721;42.668;23.386;2023-08-07T10:12:36;94777.47;;;26.33;36.68
27210;BME280;14721;42.668;23.386;2023-08-07T10:15:03;94795.56;;;26.59;37.40
27210;BME280;14721;42.668;23.386;2023-08-07T10:17:29;94760.03;;;26.77;36.54
27210;BME280;14721;42.668;23.386;2023-08-07T10:19:55;94774.31;;;27.03;35.82
27210;BME280;14721;42.668;23.386;2023-08-07T10:22:25;94786.13;;;27.22;36.15
27210;BME280;14721;42.668;23.386;2023-08-07T10:24:57;94773.06;;;27.42;36.33
27210;BME280;14721;42.668;23.386;2023-08-07T10:27:23;94783.47;;;27.70;35.58
27210;BME280;14721;42.668;23.386;2023-08-07T10:29:50;94796.75;;;27.55;34.42
27210;BME280;14721;42.668;23.386;2023-08-07T10:32:19;94784.28;;;27.16;35.05
27210;BME280;14721;42.668;23.386;2023-08-07T10:34:52;94784.28;;;27.16;35.44
27210;BME280;14721;42.668;23.386;2023-08-07T10:37:42;94789.81;;;27.34;35.33
27210;BME280;14721;42.668;23.386;2023-08-07T10:40:10;94765.03;;;27.22;35.97
27210;BME280;14721;42.668;23.386;2023-08-07T10:45:17;94758.41;;;27.48;35.94
27210;BME280;14721;42.668;23.386;2023-08-07T10:47:43;94751.69;;;27.62;36.16
27210;BME280;14721;42.668;23.386;2023-08-07T10:50:12;94759.97;;;27.74;36.58
27210;BME280;14721;42.668;23.386;2023-08-07T10:52:40;94782.44;;;28.00;36.02
27210;BME280;14721;42.668;23.386;2023-08-07T10:55:13;94763.69;;;27.97;36.59
27210;BME280;14721;42.668;23.386;2023-08-07T10:57:39;94771.38;;;28.07;36.20
27210;BME280;14721;42.668;23.386;2023-08-07T11:00:06;94741.84;;;28.02;36.01
27210;BME280;14721;42.668;23.386;2023-08-07T11:02:37;94769.34;;;27.84;35.18
27210;BME280;14721;42.668;23.386;2023-08-07T11:05:05;94763.59;;;27.86;35.55
27210;BME280;14721;42.668;23.386;2023-08-07T11:07:30;94723.06;;;27.40;35.56
27210;BME280;14721;42.668;23.386;2023-08-07T11:10:00;94714.78;;;27.28;35.89
27210;BME280;14721;42.668;23.386;2023-08-07T11:12:37;94757.94;;;27.51;36.03
27210;BME280;14721;42.668;23.386;2023-08-07T11:15:03;94735.38;;;27.49;36.49
27210;BME280;14721;42.668;23.386;2023-08-07T11:17:29;94682.22;;;27.14;36.47
27210;BME280;14721;42.668;23.386;2023-08-07T11:20:04;94712.06;;;27.40;36.99
27210;BME280;14721;42.668;23.386;2023-08-07T11:22:30;94697.16;;;27.36;36.33
27210;BME280;14721;42.668;23.386;2023-08-07T11:24:56;94733.56;;;27.43;35.83
27210;BME280;14721;42.668;23.386;2023-08-07T11:27:25;94714.81;;;27.22;35.90
27210;BME280;14721;42.668;23.386;2023-08-07T11:29:50;94693.78;;;26.98;35.98
27210;BME280;14721;42.668;23.386;2023-08-07T11:32:21;94706.53;;;27.28;35.68
27210;BME280;14721;42.668;23.386;2023-08-07T11:34:49;94720.75;;;27.19;35.57
27210;BME280;14721;42.668;23.386;2023-08-07T11:37:18;94707.84;;;27.26;35.83
27210;BME280;14721;42.668;23.386;2023-08-07T12:25:22;94653.06;;;28.43;34.43
27210;BME280;14721;42.668;23.386;2023-08-07T12:31:20;94625.59;;;28.54;33.70
27210;BME280;14721;42.668;23.386;2023-08-07T12:33:46;94697.03;;;29.00;34.27
27210;BME280;14721;42.668;23.386;2023-08-07T12:36:14;94644.09;;;28.82;34.40
27210;BME280;14721;42.668;23.386;2023-08-07T12:39:01;94650.03;;;29.02;34.58
27210;BME280;14721;42.668;23.386;2023-08-07T12:41:46;94623.19;;;28.69;34.64
27210;BME280;14721;42.668;23.386;2023-08-07T12:44:20;94667.84;;;28.99;34.35
27210;BME280;14721;42.668;23.386;2023-08-07T12:46:48;94686.50;;;28.97;34.79
27210;BME280;14721;42.668;23.386;2023-08-07T12:49:15;94694.91;;;28.91;34.84
27210;BME280;14721;42.668;23.386;2023-08-07T12:51:40;94688.66;;;28.84;35.02
27210;BME280;14721;42.668;23.386;2023-08-07T12:54:08;94699.94;;;29.05;34.94
27210;BME280;14721;42.668;23.386;2023-08-07T12:56:33;94719.50;;;28.97;34.83
27210;BME280;14721;42.668;23.386;2023-08-07T12:59:23;94680.88;;;28.35;36.29
27210;BME280;14721;42.668;23.386;2023-08-07T13:01:57;94694.19;;;28.49;36.58
27210;BME280;14721;42.668;23.386;2023-08-07T13:04:22;94709.34;;;28.75;36.53
27210;BME280;14721;42.668;23.386;2023-08-07T13:06:48;94709.59;;;28.96;35.89
27210;BME280;14721;42.668;23.386;2023-08-07T13:09:14;94690.47;;;28.90;36.48
27210;BME280;14721;42.668;23.386;2023-08-07T13:11:40;94713.44;;;28.95;36.34
27210;BME280;14721;42.668;23.386;2023-08-07T13:14:05;94716.78;;;28.74;36.71
27210;BME280;14721;42.668;23.386;2023-08-07T13:16:33;94716.88;;;28.79;36.64
27210;BME280;14721;42.668;23.386;2023-08-07T13:18:58;94698.09;;;28.42;37.14
27210;BME280;14721;42.668;23.386;2023-08-07T13:21:24;94645.88;;;28.07;37.65
27210;BME280;14721;42.668;23.386;2023-08-07T13:23:49;94709.53;;;28.27;38.20
27210;BME280;14721;42.668;23.386;2023-08-07T13:26:15;94688.50;;;28.10;38.10
27210;BME280;14721;42.668;23.386;2023-08-07T13:28:42;94699.88;;;28.13;38.45
27210;BME280;14721;42.668;23.386;2023-08-07T13:31:07;94713.06;;;27.93;38.33
27210;BME280;14721;42.668;23.386;2023-08-07T13:33:33;94718.66;;;27.69;38.91
27210;BME280;14721;42.668;23.386;2023-08-07T13:35:58;94698.31;;;27.58;39.25
27210;BME280;14721;42.668;23.386;2023-08-07T13:38:24;94720.81;;;27.67;39.91
27210;BME280;14721;42.668;23.386;2023-08-07T13:40:49;94700.06;;;27.41;39.79
27210;BME280;14721;42.668;23.386;2023-08-07T13:43:18;94710.69;;;27.13;40.00
27210;BME280;14721;42.668;23.386;2023-08-07T13:45:44;94721.66;;;26.95;40.61
27210;BME280;14721;42.668;23.386;2023-08-07T13:48:10;94729.31;;;26.93;41.10
27210;BME280;14721;42.668;23.386;2023-08-07T13:50:36;94708.06;;;26.39;41.70
27210;BME280;14721;42.668;23.386;2023-08-07T13:53:04;94738.75;;;26.30;42.45
27210;BME280;14721;42.668;23.386;2023-08-07T13:55:29;94737.16;;;26.16;43.06
27210;BME280;14721;42.668;23.386;2023-08-07T13:57:54;94660.53;;;25.53;43.82
27210;BME280;14721;42.668;23.386;2023-08-07T14:00:20;94732.25;;;25.93;44.46
27210;BME280;14721;42.668;23.386;2023-08-07T14:02:47;94727.75;;;25.74;44.17
27210;BME280;14721;42.668;23.386;2023-08-07T14:05:12;94750.22;;;25.76;44.13
27210;BME280;14721;42.668;23.386;2023-08-07T14:07:43;94738.19;;;25.52;44.55
27210;BME280;14721;42.668;23.386;2023-08-07T14:10:09;94731.81;;;25.58;44.29
27210;BME280;14721;42.668;23.386;2023-08-07T14:12:37;94745.13;;;25.55;44.39
27210;BME280;14721;42.668;23.386;2023-08-07T14:15:03;94750.25;;;25.38;44.82
27210;BME280;14721;42.668;23.386;2023-08-07T14:17:28;94768.97;;;25.41;45.12
27210;BME280;14721;42.668;23.386;2023-08-07T14:19:54;94743.19;;;25.11;45.63
27210;BME280;14721;42.668;23.386;2023-08-07T14:22:19;94756.00;;;25.17;45.92
27210;BME280;14721;42.668;23.386;2023-08-07T14:24:44;94749.25;;;25.13;45.78
27210;BME280;14721;42.668;23.386;2023-08-07T14:27:10;94762.50;;;25.23;45.64
27210;BME280;14721;42.668;23.386;2023-08-07T14:29:36;94787.47;;;25.39;44.98
27210;BME280;14721;42.668;23.386;2023-08-07T14:32:01;94782.44;;;25.30;44.82
27210;BME280;14721;42.668;23.386;2023-08-07T14:34:27;94777.59;;;25.25;45.05
27210;BME280;14721;42.668;23.386;2023-08-07T14:36:52;94780.91;;;25.53;44.84
27210;BME280;14721;42.668;23.386;2023-08-07T14:39:19;94757.31;;;25.52;44.60
27210;BME280;14721;42.668;23.386;2023-08-07T14:41:48;94782.50;;;25.67;43.84
27210;BME280;14721;42.668;23.386;2023-08-07T14:47:55;94707.88;;;25.10;44.32
27210;BME280;14721;42.668;23.386;2023-08-07T14:50:23;94796.03;;;25.62;44.05
27210;BME280;14721;42.668;23.386;2023-08-07T14:52:48;94784.66;;;25.59;44.51
27210;BME280;14721;42.668;23.386;2023-08-07T14:55:19;94787.53;;;25.70;44.50
27210;BME280;14721;42.668;23.386;2023-08-07T14:57:45;94782.50;;;25.67;44.37
27210;BME280;14721;42.668;23.386;2023-08-07T15:00:11;94774.13;;;25.62;44.38
27210;BME280;14721;42.668;23.386;2023-08-07T15:02:39;94748.97;;;25.41;44.22
27210;BME280;14721;42.668;23.386;2023-08-07T15:05:10;94784.25;;;25.55;44.62
27210;BME280;14721;42.668;23.386;2023-08-07T15:07:55;94797.94;;;25.55;44.28
27210;BME280;14721;42.668;23.386;2023-08-07T15:10:21;94803.25;;;25.37;44.74
27210;BME280;14721;42.668;23.386;2023-08-07T15:12:56;94796.53;;;25.40;45.58
27210;BME280;14721;42.668;23.386;2023-08-07T15:16:18;94755.81;;;25.06;45.37
27210;BME280;14721;42.668;23.386;2023-08-07T15:19:23;94787.75;;;25.12;46.02
27210;BME280;14721;42.668;23.386;2023-08-07T15:22:09;94767.78;;;25.11;45.57
27210;BME280;14721;42.668;23.386;2023-08-07T15:24:52;94780.78;;;25.22;45.47